Time;durP1;ratioP1;P1;durP2;ratioP2;P2;SDS_P1;SDS_P2;PMS_P1;PMS_P2;Temp;Humidity;BMP_temperature;BMP_pressure;BME280_temperature;BME280_humidity;BME280_pressure;Samples;Min_cycle;Max_cycle;Signal;HPM_P1;HPM_P2
2022/01/19 00:01:34;;;;;;;12.90;8.20;;;;;;101939.17;;;;106557;1297;63403;-43
2022/01/19 00:04:02;;;;;;;11.30;8.40;;;;;;101937.63;;;;106463;1297;68150;-35
2022/01/19 00:06:29;;;;;;;11.20;7.90;;;;;;101938.52;;;;106545;1296;63524;-32
2022/01/19 00:08:56;;;;;;;13.00;8.10;;;;;;101939.89;;;;106567;1296;63425;-33
2022/01/19 00:11:24;;;;;;;12.90;8.40;;;;;;101934.46;;;;106487;1297;63443;-32
2022/01/19 00:13:51;;;;;;;13.30;8.10;;;;;;101932.65;;;;106618;1296;63365;-32
2022/01/19 00:16:20;;;;;;;11.30;8.10;;;;;;101924.96;;;;106553;1297;68537;-32
2022/01/19 00:18:47;;;;;;;11.10;7.40;;;;;;101920.61;;;;106473;1297;63448;-43
2022/01/19 00:21:15;;;;;;;11.90;7.90;;;;;;101914.93;;;;106620;1297;63523;-43
2022/01/19 00:23:46;;;;;;;11.70;8.00;;;;;;101914.28;;;;106471;1297;63401;-43
2022/01/19 00:26:13;;;;;;;12.10;8.20;;;;;;101910.76;;;;106607;1297;63352;-43
2022/01/19 00:28:43;;;;;;;11.80;8.40;;;;;;101901.38;;;;106481;1297;67314;-32
2022/01/19 00:31:10;;;;;;;11.10;7.60;;;;;;101898.15;;;;106557;1297;63542;-31
2022/01/19 00:33:41;;;;;;;11.10;8.70;;;;;;101898.25;;;;106626;1297;63381;-31
2022/01/19 00:36:08;;;;;;;11.70;8.30;;;;;;101893.98;;;;106560;1297;63405;-32
2022/01/19 00:38:35;;;;;;;10.60;7.70;;;;;;101901.44;;;;106611;1296;63429;-43
2022/01/19 00:41:03;;;;;;;12.90;8.60;;;;;;101903.33;;;;106641;1296;67334;-43
2022/01/19 00:43:30;;;;;;;12.60;8.40;;;;;;101901.27;;;;106431;1297;63480;-33
2022/01/19 00:45:57;;;;;;;11.50;8.10;;;;;;101900.91;;;;106595;1296;63424;-39
2022/01/19 00:48:25;;;;;;;11.50;8.30;;;;;;101902.52;;;;106480;1297;63491;-32
2022/01/19 00:50:53;;;;;;;12.70;7.90;;;;;;101893.98;;;;106625;1296;63355;-32
2022/01/19 00:53:20;;;;;;;12.20;8.60;;;;;;101892.09;;;;106567;1297;67377;-31
2022/01/19 00:55:47;;;;;;;11.20;8.40;;;;;;101891.96;;;;106582;1296;63369;-33
2022/01/19 00:58:18;;;;;;;12.40;8.30;;;;;;101896.95;;;;106610;1297;63427;-32
2022/01/19 01:00:45;;;;;;;12.10;7.70;;;;;;101889.21;;;;106418;1296;63419;-42
2022/01/19 01:03:12;;;;;;;11.80;7.30;;;;;;101881.77;;;;106325;1297;405029;-42
2022/01/19 01:05:39;;;;;;;11.00;7.60;;;;;;101876.48;;;;106455;1296;67369;-42
2022/01/19 01:08:07;;;;;;;12.70;8.10;;;;;;101879.92;;;;106584;1297;63477;-42
2022/01/19 01:10:41;;;;;;;10.30;7.20;;;;;;101878.64;;;;106611;1297;63461;-43
2022/01/19 01:16:05;;;;;;;10.00;7.70;;;;;;101872.91;;;;106552;1296;63874;-32
2022/01/19 01:18:35;;;;;;;13.10;8.00;;;;;;101871.77;;;;106621;1297;68101;-42
2022/01/19 01:21:03;;;;;;;11.50;7.30;;;;;;101866.74;;;;106602;1297;63458;-48
2022/01/19 01:23:35;;;;;;;11.10;8.40;;;;;;101860.48;;;;106535;1296;63365;-35
2022/01/19 01:26:07;;;;;;;11.30;7.00;;;;;;101849.14;;;;106600;1297;63480;-32
2022/01/19 01:28:34;;;;;;;9.70;6.80;;;;;;101842.67;;;;106537;1296;63442;-42
2022/01/19 01:31:02;;;;;;;10.80;7.10;;;;;;101840.42;;;;106435;1297;66040;-43
2022/01/19 01:33:32;;;;;;;11.10;7.00;;;;;;101833.03;;;;106556;1296;63409;-42
2022/01/19 01:36:02;;;;;;;11.00;7.40;;;;;;101825.48;;;;106611;1296;63413;-43
2022/01/19 01:38:32;;;;;;;9.90;6.70;;;;;;101821.35;;;;106563;1295;63450;-36
2022/01/19 01:41:00;;;;;;;11.80;7.30;;;;;;101807.90;;;;106616;1297;63530;-43
2022/01/19 01:43:27;;;;;;;10.00;7.30;;;;;;101810.88;;;;106568;1296;67396;-42
2022/01/19 01:46:03;;;;;;;10.80;6.90;;;;;;101810.15;;;;106602;1294;63397;-32
2022/01/19 01:48:31;;;;;;;9.90;6.70;;;;;;101798.80;;;;106564;1296;63334;-42
2022/01/19 01:53:48;;;;;;;9.10;6.40;;;;;;101778.22;;;;106638;1296;63534;-36
2022/01/19 01:56:18;;;;;;;10.00;6.50;;;;;;101778.92;;;;106630;1296;67882;-32
2022/01/19 01:58:48;;;;;;;10.10;6.20;;;;;;101783.35;;;;106565;1296;63462;-43
2022/01/19 02:01:17;;;;;;;11.10;6.90;;;;;;101779.86;;;;106615;1297;63455;-44
2022/01/19 02:03:45;;;;;;;8.90;6.20;;;;;;101770.27;;;;106586;1296;63483;-34
2022/01/19 02:06:29;;;;;;;9.50;6.30;;;;;;101759.08;;;;106632;1297;63420;-33
2022/01/19 02:09:12;;;;;;;;;;;;;;101746.59;;;;106633;1296;67290;-42
2022/01/19 02:23:20;;;;;;;8.90;6.00;;;;;;101752.63;;;;106624;1297;68376;-42
2022/01/19 02:25:56;;;;;;;10.10;6.80;;;;;;101751.80;;;;106635;1297;63384;-42
2022/01/19 02:36:50;;;;;;;9.30;6.30;;;;;;101730.72;;;;106634;1296;68406;-43
2022/01/19 02:42:11;;;;;;;10.00;6.00;;;;;;101719.70;;;;106543;1297;63370;-43
2022/01/19 02:49:57;;;;;;;9.40;6.30;;;;;;101701.87;;;;106645;1297;68022;-43
2022/01/19 02:52:25;;;;;;;8.60;5.90;;;;;;101699.02;;;;106539;1297;63451;-42
2022/01/19 02:54:52;;;;;;;9.20;6.20;;;;;;101692.35;;;;106622;1296;63365;-42
2022/01/19 02:57:24;;;;;;;8.70;5.90;;;;;;101686.41;;;;106520;1297;63516;-43
2022/01/19 03:10:42;;;;;;;9.70;6.30;;;;;;101671.46;;;;106539;1297;63453;-30
2022/01/19 03:13:12;;;;;;;9.60;6.10;;;;;;101663.20;;;;106572;1297;63423;-32
2022/01/19 03:15:39;;;;;;;8.80;6.00;;;;;;101656.45;;;;106616;1294;67344;-32
2022/01/19 03:18:10;;;;;;;8.80;6.00;;;;;;101648.45;;;;106633;1297;63523;-35
2022/01/19 03:20:38;;;;;;;9.40;6.30;;;;;;101640.52;;;;106566;1296;63417;-43
2022/01/19 03:23:27;;;;;;;8.20;5.70;;;;;;101631.73;;;;106525;1297;63510;-46
2022/01/19 03:25:57;;;;;;;9.70;5.80;;;;;;101625.36;;;;106633;1297;63438;-43
2022/01/19 03:28:25;;;;;;;9.00;5.50;;;;;;101614.48;;;;106623;1297;65817;-43
2022/01/19 03:30:54;;;;;;;9.80;6.00;;;;;;101611.63;;;;106616;1296;63434;-43
2022/01/19 03:33:22;;;;;;;9.10;6.00;;;;;;101603.98;;;;106551;1297;63424;-33
2022/01/19 03:35:49;;;;;;;9.70;5.90;;;;;;101600.00;;;;106595;1296;63329;-32
2022/01/19 03:38:16;;;;;;;9.50;5.70;;;;;;101599.30;;;;106622;1297;63384;-32
2022/01/19 03:40:46;;;;;;;8.20;5.30;;;;;;101595.48;;;;106619;1296;67351;-43
2022/01/19 03:43:13;;;;;;;9.10;5.80;;;;;;101596.10;;;;106561;1296;63358;-36
2022/01/19 03:45:49;;;;;;;8.80;5.30;;;;;;101589.65;;;;106601;1296;63433;-31
2022/01/19 03:48:34;;;;;;;8.00;5.60;;;;;;101586.77;;;;106544;1297;63558;-38
2022/01/19 03:51:03;;;;;;;8.00;5.20;;;;;;101574.27;;;;106568;1297;63368;-44
2022/01/19 03:53:31;;;;;;;8.50;5.30;;;;;;101566.96;;;;106566;1297;66504;-40
2022/01/19 03:55:58;;;;;;;7.90;5.40;;;;;;101566.48;;;;106623;1296;63427;-42
2022/01/19 03:58:27;;;;;;;8.90;5.50;;;;;;101562.88;;;;106603;1297;63464;-35
2022/01/19 04:00:57;;;;;;;8.60;5.60;;;;;;101566.48;;;;106465;1297;63480;-31
2022/01/19 04:03:40;;;;;;;9.00;5.80;;;;;;101565.84;;;;106524;1297;63405;-43
2022/01/19 04:08:50;;;;;;;10.10;5.50;;;;;;101557.29;;;;106567;1297;63386;-43
2022/01/19 04:11:20;;;;;;;8.20;4.90;;;;;;101544.23;;;;106543;1297;63413;-42
2022/01/19 04:14:21;;;;;;;8.90;5.20;;;;;;101538.23;;;;106428;1297;63475;-43
2022/01/19 04:16:41;;;;;;;;;;;;;;101537.30;;;;106521;1297;63685;-43
2022/01/19 04:19:23;;;;;;;8.80;5.30;;;;;;101533.90;;;;106604;1296;67364;-32
2022/01/19 04:21:51;;;;;;;8.30;5.10;;;;;;101529.30;;;;106609;1297;63587;-32
2022/01/19 04:24:19;;;;;;;9.10;4.80;;;;;;101527.57;;;;106627;1297;63350;-42
2022/01/19 04:26:50;;;;;;;8.70;5.00;;;;;;101529.37;;;;106621;1296;63361;-43
2022/01/19 04:29:17;;;;;;;8.40;5.30;;;;;;101528.75;;;;106632;1297;63843;-34
2022/01/19 04:31:44;;;;;;;8.70;5.10;;;;;;101526.24;;;;106625;1296;67211;-32
2022/01/19 04:34:14;;;;;;;7.50;4.80;;;;;;101525.27;;;;106537;1296;63520;-36
2022/01/19 04:37:20;;;;;;;7.30;4.90;;;;;;101524.91;;;;106557;1296;63443;-33
2022/01/19 05:01:53;;;;;;;7.40;4.80;;;;;;101475.46;;;;106602;1297;63494;-32
2022/01/19 05:04:31;;;;;;;7.30;4.30;;;;;;101473.06;;;;106563;1296;63480;-32
2022/01/19 05:07:17;;;;;;;7.00;4.20;;;;;;101474.07;;;;106627;1296;63513;-32
2022/01/19 05:15:07;;;;;;;7.80;4.60;;;;;;101464.84;;;;106627;1296;63420;-43
2022/01/19 05:17:36;;;;;;;7.70;4.50;;;;;;101456.40;;;;106625;1296;63383;-43
2022/01/19 05:20:09;;;;;;;7.00;4.40;;;;;;101454.91;;;;106569;1297;63391;-31
2022/01/19 05:22:36;;;;;;;7.20;4.50;;;;;;101451.67;;;;106461;1296;63378;-31
2022/01/19 05:25:04;;;;;;;7.30;4.80;;;;;;101450.24;;;;106633;1296;65852;-33
2022/01/19 05:27:31;;;;;;;7.20;4.80;;;;;;101447.70;;;;106543;1296;63437;-32
2022/01/19 05:29:58;;;;;;;7.70;4.80;;;;;;101444.96;;;;106633;1296;63415;-32
2022/01/19 05:32:25;;;;;;;8.10;4.30;;;;;;101444.60;;;;106606;1296;63454;-32
2022/01/19 05:34:53;;;;;;;7.30;4.60;;;;;;101440.73;;;;106641;1296;63384;-32
2022/01/19 05:37:20;;;;;;;6.70;4.40;;;;;;101437.16;;;;106630;1295;65544;-32
2022/01/19 05:39:48;;;;;;;7.40;4.50;;;;;;101433.25;;;;106636;1297;63500;-32
2022/01/19 05:42:16;;;;;;;8.50;4.90;;;;;;101432.61;;;;106603;1296;63345;-32
2022/01/19 05:44:47;;;;;;;6.90;4.20;;;;;;101431.89;;;;106622;1296;63352;-43
2022/01/19 05:47:15;;;;;;;7.30;4.40;;;;;;101433.27;;;;106535;1296;63422;-42
2022/01/19 05:49:44;;;;;;;7.00;4.40;;;;;;101429.36;;;;106658;1296;67303;-32
2022/01/19 05:52:15;;;;;;;7.40;4.50;;;;;;101433.97;;;;106457;1297;63452;-32
2022/01/19 05:54:46;;;;;;;7.20;4.40;;;;;;101432.16;;;;106563;1296;63304;-43
2022/01/19 05:57:17;;;;;;;7.10;4.50;;;;;;101430.78;;;;106545;1296;63512;-31
2022/01/19 05:59:44;;;;;;;7.30;4.20;;;;;;101431.22;;;;106631;1297;63368;-32
2022/01/19 06:02:11;;;;;;;6.50;4.40;;;;;;101431.85;;;;106545;1297;66066;-32
2022/01/19 06:04:38;;;;;;;8.00;4.60;;;;;;101429.33;;;;106564;1296;63524;-33
2022/01/19 06:07:06;;;;;;;7.30;4.40;;;;;;101426.87;;;;106621;1297;63412;-31
2022/01/19 06:12:14;;;;;;;8.40;4.70;;;;;;101423.85;;;;106639;1297;63490;-33
2022/01/19 06:14:45;;;;;;;8.10;4.60;;;;;;101419.10;;;;106615;1297;67059;-32
2022/01/19 06:17:14;;;;;;;9.10;4.50;;;;;;101416.08;;;;106535;1296;63938;-43
2022/01/19 06:19:41;;;;;;;7.00;4.40;;;;;;101412.92;;;;106460;1296;63445;-42
2022/01/19 06:22:09;;;;;;;7.70;4.30;;;;;;101411.44;;;;106614;1297;63380;-42
2022/01/19 06:24:37;;;;;;;7.30;4.60;;;;;;101411.13;;;;106564;1296;63362;-32
2022/01/19 06:27:05;;;;;;;7.80;4.60;;;;;;101412.12;;;;106627;1297;65785;-32
2022/01/19 06:29:32;;;;;;;8.10;4.30;;;;;;101406.45;;;;106626;1296;63484;-32
2022/01/19 06:32:00;;;;;;;9.50;4.70;;;;;;101405.39;;;;106618;1296;63344;-34
2022/01/19 06:34:27;;;;;;;6.90;4.30;;;;;;101400.90;;;;106619;1297;63436;-32
2022/01/19 06:36:57;;;;;;;7.00;4.60;;;;;;101397.34;;;;106566;1296;63419;-31
2022/01/19 06:39:25;;;;;;;8.00;4.40;;;;;;101395.58;;;;106654;1297;67001;-43
2022/01/19 06:41:52;;;;;;;8.80;4.70;;;;;;101391.02;;;;106540;1296;63584;-42
2022/01/19 06:44:19;;;;;;;8.90;4.60;;;;;;101387.02;;;;106626;1296;63402;-42
2022/01/19 06:46:48;;;;;;;8.10;4.70;;;;;;101386.52;;;;106440;1297;63376;-42
2022/01/19 06:49:18;;;;;;;8.00;4.40;;;;;;101381.91;;;;106503;1296;63403;-43
2022/01/19 06:51:45;;;;;;;8.00;4.70;;;;;;101382.33;;;;106552;1297;65742;-43
2022/01/19 06:54:15;;;;;;;8.00;4.50;;;;;;101380.21;;;;106625;1297;63301;-43
2022/01/19 06:56:42;;;;;;;7.60;4.20;;;;;;101380.35;;;;106622;1296;63383;-43
2022/01/19 06:59:09;;;;;;;8.60;4.50;;;;;;101380.13;;;;106551;1297;63439;-43
2022/01/19 07:01:36;;;;;;;8.10;4.50;;;;;;101383.23;;;;106566;1297;63342;-43
2022/01/19 07:04:07;;;;;;;8.20;5.00;;;;;;101385.77;;;;106562;1299;68303;-43
2022/01/19 07:06:34;;;;;;;8.30;4.70;;;;;;101388.80;;;;106614;1296;63446;-42
2022/01/19 07:09:01;;;;;;;8.40;5.00;;;;;;101385.13;;;;106546;1297;63615;-33
2022/01/19 07:11:28;;;;;;;7.70;4.50;;;;;;101382.42;;;;106631;1297;63478;-43
2022/01/19 07:13:58;;;;;;;9.20;4.70;;;;;;101383.63;;;;106567;1298;63368;-42
2022/01/19 07:16:25;;;;;;;9.60;4.80;;;;;;101382.35;;;;106548;1297;66049;-42
2022/01/19 07:18:52;;;;;;;7.80;4.50;;;;;;101372.52;;;;106536;1297;63434;-42
2022/01/19 07:21:19;;;;;;;8.50;4.30;;;;;;101370.71;;;;106625;1296;63449;-43
2022/01/19 07:23:47;;;;;;;8.10;4.30;;;;;;101373.09;;;;106620;1297;63491;-42
2022/01/19 07:26:14;;;;;;;7.70;4.60;;;;;;101368.20;;;;106625;1295;63374;-43
2022/01/19 07:28:41;;;;;;;6.90;4.50;;;;;;101367.20;;;;106541;1297;67004;-43
2022/01/19 07:31:08;;;;;;;7.50;5.10;;;;;;101368.46;;;;106554;1297;63388;-42
2022/01/19 07:33:36;;;;;;;7.90;4.30;;;;;;101370.11;;;;106625;1297;63325;-32
2022/01/19 07:36:03;;;;;;;7.40;4.60;;;;;;101366.54;;;;106617;1296;63313;-32
2022/01/19 07:38:30;;;;;;;9.60;5.00;;;;;;101363.20;;;;106644;1296;63361;-36
2022/01/19 07:40:58;;;;;;;7.60;4.00;;;;;;101358.32;;;;106579;1297;67053;-32
2022/01/19 07:43:25;;;;;;;8.20;4.30;;;;;;101350.05;;;;106621;1297;63537;-33
2022/01/19 07:45:53;;;;;;;8.90;4.70;;;;;;101348.64;;;;106622;1296;63463;-39
2022/01/19 07:48:23;;;;;;;7.90;4.60;;;;;;101344.33;;;;106592;1296;63511;-38
2022/01/19 07:50:52;;;;;;;8.00;4.30;;;;;;101338.88;;;;106561;1299;63400;-34
2022/01/19 07:53:19;;;;;;;7.80;4.40;;;;;;101338.29;;;;106582;1296;65746;-30
2022/01/19 07:55:47;;;;;;;6.60;4.30;;;;;;101330.80;;;;106608;1297;63564;-43
2022/01/19 07:58:14;;;;;;;7.90;4.50;;;;;;101323.84;;;;106428;1297;63513;-42
2022/01/19 08:00:42;;;;;;;7.20;4.40;;;;;;101319.48;;;;106612;1297;63434;-44
2022/01/19 08:03:09;;;;;;;8.80;4.50;;;;;;101315.88;;;;106627;1296;63364;-42
2022/01/19 08:05:37;;;;;;;7.30;4.40;;;;;;101312.36;;;;106598;1296;68140;-32
2022/01/19 08:08:05;;;;;;;9.10;4.60;;;;;;101311.05;;;;106589;1297;63455;-40
2022/01/19 08:10:32;;;;;;;7.60;4.40;;;;;;101310.20;;;;106614;1296;63450;-44
2022/01/19 08:13:04;;;;;;;7.20;4.30;;;;;;101309.64;;;;106583;1297;63415;-41
2022/01/19 08:15:31;;;;;;;10.00;4.30;;;;;;101305.96;;;;106586;1296;63445;-33
2022/01/19 08:17:58;;;;;;;6.90;4.00;;;;;;101305.61;;;;106643;1296;66862;-40
2022/01/19 08:20:25;;;;;;;7.90;4.20;;;;;;101303.91;;;;106623;1297;63501;-43
2022/01/19 08:22:53;;;;;;;8.00;4.20;;;;;;101300.55;;;;106566;1296;63461;-42
2022/01/19 08:25:20;;;;;;;8.10;4.60;;;;;;101301.84;;;;106608;1296;63424;-30
2022/01/19 08:27:47;;;;;;;7.90;4.10;;;;;;101293.91;;;;106636;1296;63309;-32
2022/01/19 08:30:15;;;;;;;7.80;4.20;;;;;;101290.68;;;;106570;1296;67324;-32
2022/01/19 08:32:43;;;;;;;8.20;3.90;;;;;;101285.55;;;;106550;1296;64086;-32
2022/01/19 08:35:10;;;;;;;8.10;4.30;;;;;;101278.52;;;;106570;1296;63468;-32
2022/01/19 08:37:37;;;;;;;6.90;4.30;;;;;;101281.74;;;;106529;1295;63464;-32
2022/01/19 08:40:06;;;;;;;6.60;4.20;;;;;;101281.09;;;;106446;1296;63422;-29
2022/01/19 08:42:35;;;;;;;6.90;4.00;;;;;;101281.60;;;;106630;1297;68601;-35
2022/01/19 08:45:08;;;;;;;7.20;4.30;;;;;;101273.65;;;;106550;1296;63530;-42
2022/01/19 08:47:38;;;;;;;7.80;4.50;;;;;;101265.32;;;;106577;1296;63298;-42
2022/01/19 08:50:09;;;;;;;7.60;4.40;;;;;;101261.61;;;;106567;1296;63516;-44
2022/01/19 08:52:36;;;;;;;7.60;4.00;;;;;;101258.17;;;;106633;1297;63433;-41
2022/01/19 08:55:05;;;;;;;6.50;3.90;;;;;;101256.36;;;;106567;1296;67337;-29
2022/01/19 08:57:32;;;;;;;7.10;4.50;;;;;;101253.38;;;;106534;1296;64116;-32
2022/01/19 08:59:59;;;;;;;7.60;4.70;;;;;;101254.00;;;;106451;1297;63426;-34
2022/01/19 09:02:26;;;;;;;8.70;4.60;;;;;;101250.83;;;;106291;1296;343843;-42
2022/01/19 09:04:53;;;;;;;7.20;4.40;;;;;;101247.96;;;;106592;1296;63481;-44
2022/01/19 09:07:20;;;;;;;6.30;4.20;;;;;;101245.65;;;;106560;1296;65783;-36
2022/01/19 09:09:48;;;;;;;7.90;4.40;;;;;;101246.00;;;;106545;1296;63507;-35
2022/01/19 09:12:15;;;;;;;9.10;4.50;;;;;;101246.64;;;;106547;1296;63404;-40
2022/01/19 09:14:42;;;;;;;7.70;4.10;;;;;;101249.36;;;;106572;1296;63403;-38
2022/01/19 09:17:09;;;;;;;7.00;4.20;;;;;;101246.16;;;;106580;1296;63406;-45
2022/01/19 09:19:39;;;;;;;6.40;3.80;;;;;;101242.21;;;;106652;1296;67303;-38
2022/01/19 09:22:09;;;;;;;6.00;3.60;;;;;;101235.52;;;;106637;1296;63392;-38
2022/01/19 09:24:39;;;;;;;6.80;3.90;;;;;;101231.27;;;;106543;1296;63361;-41
2022/01/19 09:27:10;;;;;;;7.40;4.10;;;;;;101228.22;;;;106627;1296;63531;-39
2022/01/19 09:29:40;;;;;;;6.30;4.00;;;;;;101230.21;;;;106514;1297;63456;-34
2022/01/19 09:32:11;;;;;;;8.20;4.40;;;;;;101227.71;;;;106633;1296;68666;-34
2022/01/19 09:34:42;;;;;;;6.40;4.20;;;;;;101224.79;;;;106611;1297;63861;-35
2022/01/19 09:37:10;;;;;;;6.40;3.80;;;;;;101219.36;;;;106561;1296;63420;-33
2022/01/19 09:39:37;;;;;;;7.70;4.70;;;;;;101217.97;;;;106590;1296;63370;-47
2022/01/19 09:42:05;;;;;;;7.30;4.10;;;;;;101213.91;;;;106565;1296;63360;-47
2022/01/19 09:44:33;;;;;;;7.50;4.10;;;;;;101205.87;;;;106579;1296;67030;-48
2022/01/19 09:47:00;;;;;;;8.60;4.20;;;;;;101207.89;;;;106544;1296;63506;-34
2022/01/19 09:49:27;;;;;;;7.00;4.30;;;;;;101205.98;;;;106588;1296;63528;-49
2022/01/19 09:51:55;;;;;;;8.40;4.40;;;;;;101198.32;;;;106544;1296;63401;-41
2022/01/19 09:54:26;;;;;;;7.00;4.20;;;;;;101189.09;;;;106475;1296;63374;-38
2022/01/19 09:56:54;;;;;;;8.10;4.40;;;;;;101185.80;;;;106617;1297;66686;-41
2022/01/19 09:59:22;;;;;;;8.40;4.40;;;;;;101182.70;;;;106619;1296;63446;-38
2022/01/19 10:01:54;;;;;;;7.50;4.40;;;;;;101175.89;;;;106640;1296;63443;-38
2022/01/19 10:04:29;;;;;;;7.70;4.20;;;;;;101173.55;;;;106604;1296;63477;-31
2022/01/19 10:07:14;;;;;;;8.40;4.20;;;;;;101172.33;;;;106586;1296;63379;-37
2022/01/19 10:09:59;;;;;;;7.80;4.50;;;;;;101166.61;;;;106636;1296;68019;-33
2022/01/19 10:18:29;;;;;;;6.80;4.40;;;;;;101167.44;;;;106477;1297;63468;-33
2022/01/19 10:21:16;;;;;;;7.20;4.10;;;;;;101172.27;;;;106559;1296;63388;-45
2022/01/19 10:23:48;;;;;;;7.90;4.30;;;;;;101174.48;;;;106560;1296;66857;-34
2022/01/19 10:26:25;;;;;;;8.00;4.40;;;;;;101163.81;;;;106531;1296;63400;-40
2022/01/19 10:28:58;;;;;;;8.80;4.90;;;;;;101162.64;;;;106541;1296;63391;-41
2022/01/19 10:31:26;;;;;;;9.30;4.30;;;;;;101157.42;;;;106613;1297;63508;-43
2022/01/19 10:34:17;;;;;;;8.20;4.60;;;;;;101152.04;;;;106564;1296;63815;-42
2022/01/19 10:36:55;;;;;;;7.70;4.60;;;;;;101148.50;;;;106440;1297;66819;-45
2022/01/19 10:39:24;;;;;;;8.70;4.60;;;;;;101144.83;;;;106413;1299;63541;-42
2022/01/19 10:42:11;;;;;;;7.60;5.30;;;;;;101142.45;;;;106643;1295;64328;-40
2022/01/19 10:44:45;;;;;;;8.70;4.70;;;;;;101128.41;;;;106610;1294;63612;-40
2022/01/19 10:47:15;;;;;;;9.10;5.20;;;;;;101124.29;;;;106613;1296;63441;-32
2022/01/19 10:49:57;;;;;;;8.00;4.80;;;;;;101119.81;;;;106427;1299;65636;-45
2022/01/19 10:52:39;;;;;;;9.30;5.50;;;;;;101117.23;;;;106529;1297;63431;-44
2022/01/19 10:55:12;;;;;;;8.50;4.50;;;;;;101125.39;;;;106481;1297;63514;-32
2022/01/19 10:57:42;;;;;;;7.70;5.30;;;;;;101128.71;;;;106483;1297;63911;-32
2022/01/19 11:00:24;;;;;;;7.40;4.80;;;;;;101115.39;;;;106624;1297;63388;-33
2022/01/19 11:02:59;;;;;;;8.90;4.80;;;;;;101110.54;;;;106562;1296;66722;-39
2022/01/19 11:06:00;;;;;;;9.10;6.00;;;;;;101106.23;;;;106451;1297;63408;-40
2022/01/19 11:08:29;;;;;;;8.20;6.20;;;;;;101101.46;;;;106265;1297;63542;-45
2022/01/19 11:11:01;;;;;;;8.60;5.50;;;;;;101098.23;;;;106457;1297;63466;-34
2022/01/19 11:13:38;;;;;;;9.90;5.80;;;;;;101093.02;;;;106466;1297;63528;-33
2022/01/19 11:16:06;;;;;;;10.10;6.00;;;;;;101091.83;;;;106498;1297;68571;-44
2022/01/19 11:18:37;;;;;;;9.20;5.80;;;;;;101091.36;;;;106634;1296;63477;-38
2022/01/19 11:21:09;;;;;;;9.00;5.90;;;;;;101082.65;;;;106570;1296;63399;-32
2022/01/19 11:23:43;;;;;;;11.40;6.10;;;;;;101081.32;;;;106458;1297;63807;-33
2022/01/19 11:26:16;;;;;;;;;;;;;;101073.98;;;;106660;1297;63500;-34
2022/01/19 11:28:47;;;;;;;9.70;6.60;;;;;;101068.37;;;;106464;1298;67705;-32
2022/01/19 11:31:24;;;;;;;10.40;6.40;;;;;;101067.09;;;;106542;1300;63415;-33
2022/01/19 11:33:56;;;;;;;12.20;6.70;;;;;;101066.23;;;;106609;1296;63461;-38
2022/01/19 11:36:31;;;;;;;10.40;6.30;;;;;;101063.23;;;;106603;1297;63561;-33
2022/01/19 11:39:20;;;;;;;12.60;7.00;;;;;;101058.94;;;;106591;1297;63338;-42
2022/01/19 11:41:54;;;;;;;11.30;6.40;;;;;;101047.96;;;;106485;1297;69523;-39
2022/01/19 11:44:28;;;;;;;10.40;6.50;;;;;;101050.45;;;;106589;1294;63413;-37
2022/01/19 11:47:13;;;;;;;11.70;6.80;;;;;;101051.11;;;;106593;1296;63507;-37
2022/01/19 11:49:57;;;;;;;10.70;6.30;;;;;;101038.94;;;;106598;1297;63489;-40
2022/01/19 11:52:46;;;;;;;10.90;5.90;;;;;;101043.05;;;;106583;1297;63472;-38
2022/01/19 11:55:22;;;;;;;10.20;6.10;;;;;;101038.95;;;;106606;1296;67378;-31
2022/01/19 11:58:16;;;;;;;11.00;6.50;;;;;;101034.90;;;;106657;1297;63445;-32
2022/01/19 12:00:47;;;;;;;10.00;6.10;;;;;;101033.48;;;;106682;1297;63372;-31
2022/01/19 12:03:39;;;;;;;10.30;5.70;;;;;;101025.58;;;;106672;1297;63357;-34
2022/01/19 12:06:06;;;;;;;11.20;6.50;;;;;;101019.43;;;;106687;1297;63432;-41
2022/01/19 12:08:36;;;;;;;11.20;6.60;;;;;;101013.73;;;;106621;1296;67238;-49
2022/01/19 12:11:24;;;;;;;9.10;5.50;;;;;;101007.79;;;;106644;1297;63703;-46
2022/01/19 12:17:07;;;;;;;9.90;6.10;;;;;;100997.23;;;;106607;1297;63314;-36
2022/01/19 12:19:40;;;;;;;10.70;5.70;;;;;;100997.09;;;;106634;1297;63489;-49
2022/01/19 12:22:27;;;;;;;8.80;6.10;;;;;;100989.06;;;;106608;1296;68062;-46
2022/01/19 12:25:09;;;;;;;8.80;6.20;;;;;;100990.64;;;;106474;1297;63506;-49
2022/01/19 12:27:39;;;;;;;10.90;6.10;;;;;;100983.02;;;;106602;1297;63384;-48
2022/01/19 12:30:18;;;;;;;9.20;5.60;;;;;;100983.39;;;;106606;1297;63751;-40
2022/01/19 12:32:51;;;;;;;10.00;5.40;;;;;;100975.38;;;;106611;1297;63485;-39
2022/01/19 12:35:35;;;;;;;8.20;5.00;;;;;;100969.93;;;;106609;1297;68683;-40
2022/01/19 12:38:33;;;;;;;9.60;5.40;;;;;;100963.17;;;;106662;1297;63544;-39
2022/01/19 12:41:01;;;;;;;11.40;5.50;;;;;;100960.44;;;;106549;1297;63407;-44
2022/01/19 12:43:37;;;;;;;9.90;5.90;;;;;;100959.64;;;;106661;1297;63395;-38
2022/01/19 12:46:08;;;;;;;9.70;5.50;;;;;;100955.23;;;;106617;1297;63375;-39
2022/01/19 12:48:48;;;;;;;11.00;6.10;;;;;;100952.94;;;;106635;1296;67390;-46
2022/01/19 12:51:36;;;;;;;7.40;5.60;;;;;;100945.34;;;;106586;1296;63798;-48
2022/01/19 12:54:04;;;;;;;10.80;5.50;;;;;;100942.06;;;;106601;1297;63462;-46
2022/01/19 12:56:31;;;;;;;9.60;5.90;;;;;;100940.70;;;;106543;1297;63379;-50
2022/01/19 12:59:03;;;;;;;9.20;5.60;;;;;;100940.27;;;;106440;1297;63463;-34
2022/01/19 13:01:30;;;;;;;9.90;5.90;;;;;;100937.33;;;;106618;1297;67123;-32
2022/01/19 13:03:58;;;;;;;9.40;5.60;;;;;;100932.33;;;;106632;1297;63545;-37
2022/01/19 13:06:27;;;;;;;8.50;5.00;;;;;;100926.36;;;;106598;1296;63552;-32
2022/01/19 13:09:07;;;;;;;8.70;5.70;;;;;;100924.09;;;;106581;1297;63459;-34
2022/01/19 13:11:39;;;;;;;8.10;5.30;;;;;;100921.34;;;;106606;1296;63466;-32
2022/01/19 13:14:10;;;;;;;9.70;5.50;;;;;;100920.30;;;;106679;1297;68180;-31
2022/01/19 13:16:48;;;;;;;8.20;5.70;;;;;;100912.34;;;;106520;1297;63488;-31
2022/01/19 13:19:20;;;;;;;9.00;5.50;;;;;;100909.52;;;;106570;1296;63367;-39
2022/01/19 13:21:59;;;;;;;8.00;5.80;;;;;;100903.21;;;;106653;1297;63444;-40
2022/01/19 13:24:27;;;;;;;8.70;5.70;;;;;;100903.30;;;;106679;1296;63435;-34
2022/01/19 13:27:04;;;;;;;7.10;5.20;;;;;;100898.75;;;;106595;1296;65826;-33
2022/01/19 13:29:39;;;;;;;9.50;5.90;;;;;;100895.00;;;;106656;1297;63501;-42
2022/01/19 13:32:19;;;;;;;9.00;6.00;;;;;;100893.68;;;;106495;1297;63445;-32
2022/01/19 13:35:16;;;;;;;8.30;5.50;;;;;;100886.70;;;;106607;1297;63348;-34
2022/01/19 13:37:58;;;;;;;7.50;5.40;;;;;;100886.71;;;;106624;1296;63386;-42
2022/01/19 13:40:31;;;;;;;8.30;6.00;;;;;;100879.13;;;;106679;1296;68100;-31
2022/01/19 13:43:08;;;;;;;;;;;;;;100881.50;;;;106645;1296;63383;-30
2022/01/19 13:48:28;;;;;;;9.70;6.00;;;;;;100879.98;;;;106648;1294;63550;-42
2022/01/19 13:51:09;;;;;;;9.10;5.70;;;;;;100878.45;;;;106638;1297;64053;-44
2022/01/19 13:53:51;;;;;;;8.60;5.70;;;;;;100874.11;;;;106556;1297;66612;-36
2022/01/19 13:56:28;;;;;;;8.80;6.10;;;;;;100874.19;;;;106552;1297;63449;-32
2022/01/19 13:59:00;;;;;;;9.70;6.10;;;;;;100866.48;;;;106604;1296;63445;-40
2022/01/19 14:01:41;;;;;;;8.80;6.40;;;;;;100864.84;;;;106602;1296;63564;-48
2022/01/19 14:04:12;;;;;;;8.60;6.10;;;;;;100862.07;;;;106619;1297;63448;-40
2022/01/19 14:06:49;;;;;;;7.90;5.70;;;;;;100864.80;;;;106605;1296;69097;-38
2022/01/19 14:09:23;;;;;;;9.00;6.50;;;;;;100864.37;;;;106668;1295;63400;-42
2022/01/19 14:12:11;;;;;;;9.10;6.50;;;;;;100862.14;;;;106611;1294;63445;-44
2022/01/19 14:14:50;;;;;;;10.90;7.20;;;;;;100862.16;;;;106622;1297;63757;-50
2022/01/19 14:17:47;;;;;;;7.90;5.90;;;;;;100856.09;;;;106658;1296;63315;-43
2022/01/19 14:20:22;;;;;;;8.90;6.00;;;;;;100849.89;;;;106656;1297;67380;-39
2022/01/19 14:22:49;;;;;;;9.40;6.70;;;;;;100847.23;;;;106630;1297;63617;-38
2022/01/19 14:25:18;;;;;;;10.50;6.30;;;;;;100843.98;;;;106638;1297;63458;-34
2022/01/19 14:27:52;;;;;;;9.50;6.60;;;;;;100844.41;;;;106505;1296;63414;-36
2022/01/19 14:30:27;;;;;;;8.60;5.70;;;;;;100846.56;;;;106558;1297;63457;-32
2022/01/19 14:32:58;;;;;;;8.70;6.10;;;;;;100840.71;;;;106454;1298;67967;-38
2022/01/19 14:35:35;;;;;;;7.90;5.90;;;;;;100833.14;;;;106609;1297;63384;-38
2022/01/19 14:38:20;;;;;;;8.10;6.00;;;;;;100825.67;;;;106604;1297;63477;-38